Time;durP1;ratioP1;P1;durP2;ratioP2;P2;SDS_P1;SDS_P2;PMS_P1;PMS_P2;Temp;Humidity;BMP_temperature;BMP_pressure;BME280_temperature;BME280_humidity;BME280_pressure;Samples;Min_cycle;Max_cycle;Signal;HPM_P1;HPM_P2
2023/02/02 00:01:37;;;;;;;9.53;5.27;;;7.90;99.90;;;;;;4895837;29;20449;-76
2023/02/02 00:04:03;;;;;;;10.20;4.00;;;7.90;99.90;;;;;;4897261;29;20986;-76
2023/02/02 00:06:30;;;;;;;11.17;3.83;;;7.90;99.90;;;;;;4895475;29;20474;-76
2023/02/02 00:08:59;;;;;;;12.77;3.37;;;7.90;99.90;;;;;;4896192;29;20412;-76
2023/02/02 00:11:27;;;;;;;10.57;3.53;;;7.90;99.90;;;;;;4895780;29;20455;-76
2023/02/02 00:13:56;;;;;;;8.50;3.77;;;7.90;99.90;;;;;;4896167;29;20761;-76
2023/02/02 00:16:25;;;;;;;13.67;3.30;;;7.90;99.90;;;;;;4895826;29;20491;-76
2023/02/02 00:18:52;;;;;;;10.83;3.30;;;7.90;99.90;;;;;;4896452;29;20458;-76
2023/02/02 00:21:21;;;;;;;16.97;3.90;;;7.90;99.90;;;;;;4896179;29;20476;-76
2023/02/02 00:23:47;;;;;;;8.07;3.30;;;7.90;99.90;;;;;;4895271;29;20573;-76
2023/02/02 00:26:13;;;;;;;13.73;3.27;;;7.90;99.90;;;;;;4896811;29;20488;-76
2023/02/02 00:28:39;;;;;;;11.80;3.70;;;7.90;99.90;;;;;;4896914;29;20444;-76
2023/02/02 00:31:05;;;;;;;12.60;3.97;;;7.90;99.90;;;;;;4894543;29;20448;-76
2023/02/02 00:33:34;;;;;;;14.40;3.53;;;7.90;99.90;;;;;;4895859;29;20402;-76
2023/02/02 00:36:00;;;;;;;19.10;4.70;;;7.90;99.90;;;;;;4894536;29;20463;-76
2023/02/02 00:38:33;;;;;;;11.90;3.37;;;7.90;99.90;;;;;;4880112;29;20428;-76
2023/02/02 00:41:01;;;;;;;13.40;3.70;;;7.90;99.90;;;;;;4880002;29;20493;-75
2023/02/02 00:43:29;;;;;;;10.10;3.70;;;7.90;99.90;;;;;;4878918;29;20455;-74
2023/02/02 00:45:56;;;;;;;10.03;3.77;;;7.90;99.90;;;;;;4879553;29;20471;-75
2023/02/02 00:48:27;;;;;;;9.73;3.40;;;7.90;99.90;;;;;;4880039;29;20437;-74
2023/02/02 00:50:53;;;;;;;8.40;2.90;;;7.90;99.90;;;;;;4879677;29;20447;-74
2023/02/02 00:53:19;;;;;;;8.67;3.07;;;7.90;99.90;;;;;;4879941;29;20456;-75
2023/02/02 00:55:46;;;;;;;16.90;3.63;;;7.90;99.90;;;;;;4880407;29;20506;-75
2023/02/02 00:58:12;;;;;;;16.23;4.50;;;7.90;99.90;;;;;;4894992;29;21033;-74
2023/02/02 01:00:40;;;;;;;11.20;4.00;;;7.90;99.90;;;;;;4896733;29;20492;-75
2023/02/02 01:03:12;;;;;;;8.43;3.40;;;7.90;99.90;;;;;;4876683;29;20621;-74
2023/02/02 01:05:41;;;;;;;8.40;3.90;;;7.90;99.90;;;;;;4908105;29;20468;-74
2023/02/02 01:08:09;;;;;;;13.87;3.73;;;7.90;99.90;;;;;;4895057;29;20457;-75
2023/02/02 01:10:38;;;;;;;9.83;3.90;;;7.90;99.90;;;;;;4896551;29;20449;-75
2023/02/02 01:13:04;;;;;;;12.23;3.23;;;7.90;99.90;;;;;;4895062;29;20443;-74
2023/02/02 01:15:30;;;;;;;12.27;3.80;;;7.90;99.90;;;;;;4880231;29;20967;-75
2023/02/02 01:17:57;;;;;;;12.43;3.73;;;7.90;99.90;;;;;;4902841;29;20452;-74
2023/02/02 01:20:25;;;;;;;7.67;3.57;;;7.90;99.90;;;;;;4879724;29;20981;-75
2023/02/02 01:22:51;;;;;;;10.27;3.33;;;7.90;99.90;;;;;;4895563;29;20448;-75
2023/02/02 01:25:17;;;;;;;10.40;4.00;;;7.90;99.90;;;;;;4894369;29;20464;-75
2023/02/02 01:27:50;;;;;;;18.90;4.03;;;7.90;99.90;;;;;;4895174;29;20966;-74
2023/02/02 01:30:18;;;;;;;9.97;4.60;;;7.90;99.90;;;;;;4895279;29;20438;-74
2023/02/02 01:32:49;;;;;;;15.53;4.70;;;7.90;99.90;;;;;;4895490;29;20440;-75
2023/02/02 01:35:15;;;;;;;10.07;3.90;;;7.90;99.90;;;;;;4894885;29;20496;-74
2023/02/02 01:37:44;;;;;;;9.73;4.47;;;7.90;99.90;;;;;;4879876;29;20445;-75
2023/02/02 01:40:12;;;;;;;15.13;4.70;;;7.90;99.90;;;;;;4879331;29;20541;-75
2023/02/02 01:42:38;;;;;;;17.83;4.70;;;7.90;99.90;;;;;;4894880;29;20449;-74
2023/02/02 01:45:22;;;;;;;12.77;3.80;;;7.90;99.90;;;;;;4894477;29;21030;-74
2023/02/02 01:47:57;;;;;;;9.77;4.70;;;7.90;99.90;;;;;;4880143;29;20441;-75
2023/02/02 01:50:32;;;;;;;13.27;4.10;;;7.90;99.90;;;;;;4894457;29;20437;-74
2023/02/02 01:53:01;;;;;;;8.10;4.67;;;7.90;99.90;;;;;;4880916;29;21198;-75
2023/02/02 01:55:33;;;;;;;15.17;4.50;;;7.90;99.90;;;;;;4898243;29;20838;-74
2023/02/02 01:58:21;;;;;;;12.87;4.53;;;7.90;99.90;;;;;;4898589;29;20985;-75
2023/02/02 02:00:48;;;;;;;9.20;4.23;;;7.90;99.90;;;;;;4882871;29;20437;-75
2023/02/02 02:03:16;;;;;;;10.60;4.37;;;7.90;99.90;;;;;;4899297;29;20947;-75
2023/02/02 02:05:51;;;;;;;18.00;4.50;;;7.90;99.90;;;;;;4903486;29;20487;-74
2023/02/02 02:08:20;;;;;;;13.27;4.80;;;7.90;99.90;;;;;;4898168;29;20412;-74
2023/02/02 02:10:49;;;;;;;8.43;3.63;;;7.90;99.90;;;;;;4910012;29;20421;-74
2023/02/02 02:13:20;;;;;;;8.27;4.07;;;7.90;99.90;;;;;;4883126;29;20440;-75
2023/02/02 02:16:19;;;;;;;11.63;4.73;;;7.90;99.90;;;;;;4898611;29;20457;-74
2023/02/02 02:19:11;;;;;;;13.13;4.43;;;7.90;99.90;;;;;;4849169;29;21004;-75
2023/02/02 02:28:26;;;;;;;10.93;4.00;;;7.90;99.90;;;;;;4882275;29;20458;-75
2023/02/02 02:31:31;;;;;;;9.70;3.77;;;7.90;99.90;;;;;;4898253;29;20997;-74
2023/02/02 02:34:37;;;;;;;7.83;3.97;;;7.90;99.90;;;;;;4896475;29;20551;-75
2023/02/02 02:37:20;;;;;;;12.93;4.40;;;7.90;99.90;;;;;;4898042;29;20975;-74
2023/02/02 02:40:00;;;;;;;15.80;4.67;;;7.90;99.90;;;;;;4897955;29;20471;-74
2023/02/02 02:42:29;;;;;;;10.53;5.00;;;7.90;99.90;;;;;;4898005;29;20454;-74
2023/02/02 02:45:02;;;;;;;13.57;4.43;;;7.80;99.90;;;;;;4897757;29;20911;-75
2023/02/02 02:47:31;;;;;;;6.33;3.53;;;7.90;99.90;;;;;;4897437;29;20448;-74
2023/02/02 02:49:58;;;;;;;7.47;4.60;;;7.90;99.90;;;;;;4898782;29;20487;-75
2023/02/02 02:52:26;;;;;;;13.10;4.47;;;7.90;99.90;;;;;;4897647;29;20543;-75
2023/02/02 02:54:54;;;;;;;12.33;5.87;;;7.90;99.90;;;;;;4896760;29;20440;-74
2023/02/02 02:57:25;;;;;;;7.90;3.23;;;7.90;99.90;;;;;;4882152;29;20822;-74
2023/02/02 02:59:57;;;;;;;14.50;4.00;;;7.90;99.90;;;;;;4881966;29;20457;-75
2023/02/02 03:02:34;;;;;;;11.23;3.87;;;7.90;99.90;;;;;;4881604;29;20445;-74
2023/02/02 03:05:12;;;;;;;11.23;4.57;;;7.90;99.90;;;;;;4896388;29;20560;-74
2023/02/02 03:07:47;;;;;;;9.80;3.90;;;7.90;99.90;;;;;;4896028;29;20480;-74
2023/02/02 03:10:20;;;;;;;8.40;3.70;;;7.90;99.90;;;;;;4898584;29;20501;-74
2023/02/02 03:12:48;;;;;;;13.43;3.83;;;7.90;99.90;;;;;;4897418;29;20419;-75
2023/02/02 03:15:18;;;;;;;11.60;3.80;;;7.90;99.90;;;;;;4896723;29;20464;-75
2023/02/02 03:17:48;;;;;;;11.63;4.17;;;7.90;99.90;;;;;;4898332;29;20947;-75
2023/02/02 03:20:17;;;;;;;8.60;3.60;;;7.90;99.90;;;;;;4881313;29;20472;-74
2023/02/02 03:22:43;;;;;;;15.73;4.60;;;7.90;99.90;;;;;;4897600;29;20463;-74
2023/02/02 03:25:10;;;;;;;11.03;3.80;;;7.90;99.90;;;;;;4897361;29;20461;-74
2023/02/02 03:27:39;;;;;;;11.03;3.93;;;7.90;99.90;;;;;;4896798;29;20445;-75
2023/02/02 03:30:09;;;;;;;8.40;3.43;;;7.90;99.90;;;;;;4897841;29;20412;-75
2023/02/02 03:32:40;;;;;;;10.80;3.93;;;7.90;99.90;;;;;;4896120;29;20436;-74
2023/02/02 03:35:09;;;;;;;11.27;3.30;;;8.00;99.90;;;;;;4898121;29;20436;-74
2023/02/02 03:37:35;;;;;;;14.90;4.07;;;7.90;99.90;;;;;;4896294;29;20429;-74
2023/02/02 03:40:04;;;;;;;9.80;3.93;;;7.90;99.90;;;;;;4896172;29;20472;-75
2023/02/02 03:42:30;;;;;;;10.77;4.33;;;7.90;99.90;;;;;;4896325;29;21049;-75
2023/02/02 03:44:59;;;;;;;18.57;4.20;;;7.90;99.90;;;;;;4896594;29;20547;-75
2023/02/02 03:47:30;;;;;;;11.80;3.80;;;7.90;99.90;;;;;;4881138;29;20845;-74
2023/02/02 03:49:56;;;;;;;14.97;3.47;;;7.90;99.90;;;;;;4893052;29;20821;-74
2023/02/02 03:52:22;;;;;;;15.40;4.20;;;7.90;99.90;;;;;;4890363;29;20434;-75
2023/02/02 03:54:53;;;;;;;15.20;4.87;;;8.00;99.90;;;;;;4897130;29;20463;-74
2023/02/02 03:57:22;;;;;;;8.57;4.47;;;7.90;99.90;;;;;;4896997;29;20517;-74
2023/02/02 03:59:52;;;;;;;18.03;4.83;;;7.90;99.90;;;;;;4911287;29;20572;-74
2023/02/02 04:02:21;;;;;;;9.33;4.43;;;7.90;99.90;;;;;;4866209;29;20430;-74
2023/02/02 04:04:50;;;;;;;7.93;3.40;;;7.90;99.90;;;;;;4895750;29;20879;-75
2023/02/02 04:07:16;;;;;;;15.63;4.60;;;7.90;99.90;;;;;;4881058;29;20489;-74
2023/02/02 04:09:45;;;;;;;9.13;4.50;;;7.90;99.90;;;;;;4895860;29;20524;-74
2023/02/02 04:12:12;;;;;;;13.40;4.00;;;7.90;99.90;;;;;;4880686;29;20474;-74
2023/02/02 04:14:40;;;;;;;11.90;3.80;;;7.90;99.90;;;;;;4895794;29;20450;-75
2023/02/02 04:17:10;;;;;;;13.37;4.50;;;7.90;99.90;;;;;;4896122;29;20452;-75
2023/02/02 04:19:36;;;;;;;6.90;3.30;;;7.90;99.90;;;;;;4895760;29;20464;-74
2023/02/02 04:22:04;;;;;;;9.73;4.07;;;8.00;99.90;;;;;;4897045;29;20444;-75
2023/02/02 04:24:30;;;;;;;12.90;4.97;;;7.90;99.90;;;;;;4895834;29;20958;-75
2023/02/02 04:26:56;;;;;;;13.43;4.00;;;7.90;99.90;;;;;;4895391;29;20524;-74
2023/02/02 04:29:25;;;;;;;7.77;3.60;;;7.90;99.90;;;;;;4897375;29;20429;-75
2023/02/02 04:31:51;;;;;;;9.53;4.03;;;7.90;99.90;;;;;;4895885;29;20825;-75
2023/02/02 04:34:21;;;;;;;14.87;4.73;;;7.90;99.90;;;;;;4896015;29;20425;-75
2023/02/02 04:36:50;;;;;;;9.30;3.97;;;8.00;99.90;;;;;;4896680;29;20851;-74
2023/02/02 04:39:16;;;;;;;14.90;4.43;;;8.00;99.90;;;;;;4896681;29;20453;-74
2023/02/02 04:41:44;;;;;;;12.47;3.80;;;7.90;99.90;;;;;;4896475;29;20444;-75
2023/02/02 04:44:16;;;;;;;17.10;4.67;;;7.90;99.90;;;;;;4889697;29;20422;-74
2023/02/02 04:46:43;;;;;;;10.60;3.93;;;8.00;99.90;;;;;;4879485;29;20803;-75
2023/02/02 04:49:13;;;;;;;9.37;4.60;;;8.00;99.90;;;;;;4880124;29;20457;-75
2023/02/02 04:51:39;;;;;;;13.03;4.80;;;8.00;99.90;;;;;;4894473;29;20526;-75
2023/02/02 04:54:10;;;;;;;13.50;3.87;;;8.00;99.90;;;;;;4887289;29;20440;-75
2023/02/02 04:56:38;;;;;;;12.67;4.63;;;8.00;99.90;;;;;;4895229;29;20532;-75
2023/02/02 04:59:04;;;;;;;15.87;4.70;;;8.00;99.90;;;;;;4895317;29;20452;-75
2023/02/02 05:01:31;;;;;;;8.33;4.30;;;8.00;99.90;;;;;;4895215;29;20448;-74
2023/02/02 05:03:59;;;;;;;14.60;5.40;;;8.00;99.90;;;;;;4895836;29;20892;-75
2023/02/02 05:06:28;;;;;;;9.80;4.50;;;8.00;99.90;;;;;;4879271;29;20479;-75
2023/02/02 05:08:56;;;;;;;12.93;4.90;;;8.00;99.90;;;;;;4880374;29;20440;-74
2023/02/02 05:11:25;;;;;;;13.50;4.17;;;8.00;99.90;;;;;;4879841;29;20466;-74
2023/02/02 05:13:56;;;;;;;10.50;4.97;;;8.00;99.90;;;;;;4894771;29;20465;-75
2023/02/02 05:16:26;;;;;;;13.27;5.00;;;8.00;99.90;;;;;;4896859;29;20464;-74
2023/02/02 05:18:55;;;;;;;13.23;4.27;;;8.00;99.90;;;;;;4895662;29;20491;-75
2023/02/02 05:21:26;;;;;;;12.83;4.00;;;8.00;99.90;;;;;;4890353;29;20826;-76
2023/02/02 05:23:56;;;;;;;15.67;5.17;;;8.00;99.90;;;;;;4880687;29;20443;-76
2023/02/02 05:26:27;;;;;;;16.60;4.80;;;8.00;99.90;;;;;;4896546;29;20467;-74
2023/02/02 05:28:55;;;;;;;13.20;3.90;;;8.00;99.90;;;;;;4899754;29;20488;-74
2023/02/02 05:31:22;;;;;;;18.70;5.47;;;8.00;99.90;;;;;;4897565;29;20436;-75
2023/02/02 05:33:50;;;;;;;12.80;3.83;;;8.00;99.90;;;;;;4899419;29;20445;-75
2023/02/02 05:36:19;;;;;;;12.33;5.07;;;8.00;99.90;;;;;;4899467;29;20495;-75
2023/02/02 05:38:47;;;;;;;11.57;5.47;;;8.00;99.90;;;;;;4899188;29;20993;-74
2023/02/02 05:41:13;;;;;;;15.30;4.77;;;8.00;99.90;;;;;;4899165;29;20437;-75
2023/02/02 05:43:39;;;;;;;10.53;5.20;;;8.00;99.90;;;;;;4900213;29;20468;-75
2023/02/02 05:46:05;;;;;;;13.70;4.60;;;8.00;99.90;;;;;;4883227;29;21297;-74
2023/02/02 05:48:33;;;;;;;11.67;5.17;;;8.00;99.90;;;;;;4899196;29;20470;-74
2023/02/02 05:51:14;;;;;;;9.70;4.20;;;8.00;99.90;;;;;;4899938;29;20495;-74
2023/02/02 05:53:43;;;;;;;10.97;4.60;;;8.00;99.90;;;;;;4898622;29;20772;-75
2023/02/02 05:56:10;;;;;;;10.17;3.87;;;8.00;99.90;;;;;;4914127;29;20449;-74
2023/02/02 05:58:36;;;;;;;13.33;3.97;;;8.00;99.90;;;;;;4898547;29;20520;-74
2023/02/02 06:01:04;;;;;;;18.00;5.33;;;8.00;99.90;;;;;;4897927;29;20442;-74
2023/02/02 06:03:31;;;;;;;10.27;3.93;;;8.00;99.90;;;;;;4898630;29;20503;-75
2023/02/02 06:05:56;;;;;;;12.93;4.80;;;8.00;99.90;;;;;;4897771;29;20461;-74
2023/02/02 06:08:25;;;;;;;9.37;4.30;;;8.00;99.90;;;;;;4899903;29;20421;-75
2023/02/02 06:10:53;;;;;;;10.20;4.70;;;8.10;99.90;;;;;;4898087;29;20428;-74
2023/02/02 06:13:22;;;;;;;11.37;3.80;;;8.00;99.90;;;;;;4898828;29;20771;-74
2023/02/02 06:15:50;;;;;;;10.10;4.63;;;8.00;99.90;;;;;;4898663;29;20441;-75
2023/02/02 06:18:16;;;;;;;10.53;4.07;;;8.00;99.90;;;;;;4893532;29;20505;-74
2023/02/02 06:20:43;;;;;;;8.60;4.00;;;8.00;99.90;;;;;;4865230;29;20476;-75
2023/02/02 06:23:09;;;;;;;9.97;4.03;;;8.00;99.90;;;;;;4889194;29;20452;-74
2023/02/02 06:25:37;;;;;;;13.53;4.43;;;8.00;99.90;;;;;;4898807;29;20456;-75
2023/02/02 06:28:03;;;;;;;9.70;4.00;;;8.00;99.90;;;;;;4899386;29;20772;-74
2023/02/02 06:30:34;;;;;;;7.13;4.10;;;8.00;99.90;;;;;;4882348;29;20185;-74
2023/02/02 06:33:00;;;;;;;14.23;3.77;;;8.00;99.90;;;;;;4881842;29;20453;-76
2023/02/02 06:35:26;;;;;;;13.57;4.30;;;8.00;99.90;;;;;;4898121;29;20446;-75
2023/02/02 06:37:52;;;;;;;11.73;4.90;;;8.00;99.90;;;;;;4914053;29;20472;-75
2023/02/02 06:40:18;;;;;;;13.90;4.43;;;8.00;99.90;;;;;;4897373;29;20471;-75
2023/02/02 06:42:46;;;;;;;12.00;5.00;;;8.00;99.90;;;;;;4882556;29;20436;-75
2023/02/02 06:45:12;;;;;;;12.13;4.33;;;8.00;99.90;;;;;;4883252;29;20936;-75
2023/02/02 06:47:40;;;;;;;9.60;4.30;;;8.00;99.90;;;;;;4898717;29;20429;-75
2023/02/02 06:50:09;;;;;;;18.20;5.13;;;8.00;99.90;;;;;;4901507;29;20428;-76
2023/02/02 06:52:38;;;;;;;11.43;4.20;;;8.00;99.90;;;;;;4917465;29;20435;-76
2023/02/02 06:55:04;;;;;;;9.93;4.00;;;8.00;99.90;;;;;;4877369;29;20454;-76
2023/02/02 06:57:30;;;;;;;14.27;4.80;;;8.00;99.90;;;;;;4898476;29;20479;-77
2023/02/02 06:59:56;;;;;;;10.63;4.47;;;8.00;99.90;;;;;;4897166;29;20886;-76
2023/02/02 07:02:22;;;;;;;11.63;4.53;;;8.00;99.90;;;;;;4897517;29;20445;-75
2023/02/02 07:04:51;;;;;;;12.23;4.10;;;8.00;99.90;;;;;;4881144;29;20466;-75
2023/02/02 07:07:19;;;;;;;10.03;4.63;;;8.00;99.90;;;;;;4898680;29;20415;-75
2023/02/02 07:09:47;;;;;;;18.27;5.63;;;8.00;99.90;;;;;;4881667;29;20478;-75
2023/02/02 07:12:13;;;;;;;12.03;4.70;;;8.00;99.90;;;;;;4897147;29;20547;-75
2023/02/02 07:14:46;;;;;;;12.73;4.90;;;8.10;99.90;;;;;;4925608;29;20510;-75
2023/02/02 07:17:17;;;;;;;14.83;4.53;;;8.00;99.90;;;;;;4897408;29;20516;-75
2023/02/02 07:19:43;;;;;;;12.53;5.10;;;8.00;99.90;;;;;;4897344;29;20495;-77
2023/02/02 07:22:12;;;;;;;14.13;5.60;;;8.00;99.90;;;;;;4862899;29;20472;-73
2023/02/02 07:24:38;;;;;;;12.77;4.70;;;8.00;99.90;;;;;;4893734;29;20440;-76
2023/02/02 07:27:04;;;;;;;9.40;5.00;;;8.10;99.90;;;;;;4895389;29;20926;-76
2023/02/02 07:29:30;;;;;;;13.77;4.60;;;8.00;99.90;;;;;;4892711;29;20900;-74
2023/02/02 07:31:56;;;;;;;12.07;4.80;;;8.00;99.90;;;;;;4897755;29;20790;-75
2023/02/02 07:34:23;;;;;;;15.43;5.13;;;8.00;99.90;;;;;;4897814;29;20429;-75
2023/02/02 07:36:56;;;;;;;15.90;5.03;;;8.00;99.90;;;;;;4898359;29;20479;-75
2023/02/02 07:39:24;;;;;;;14.40;4.60;;;8.00;99.90;;;;;;4897939;29;20464;-75
2023/02/02 07:41:53;;;;;;;20.93;5.00;;;8.00;99.90;;;;;;4896627;29;20461;-75
2023/02/02 07:44:31;;;;;;;13.20;4.95;;;8.00;99.90;;;;;;4881337;29;20568;-75
2023/02/02 07:46:59;;;;;;;11.30;4.90;;;8.00;99.90;;;;;;4896597;29;20754;-75
2023/02/02 07:49:27;;;;;;;9.83;5.03;;;8.00;99.90;;;;;;4896319;29;20435;-75
2023/02/02 07:51:56;;;;;;;11.87;5.43;;;8.00;99.90;;;;;;4896107;29;20806;-75
2023/02/02 07:54:22;;;;;;;15.43;5.60;;;8.00;99.90;;;;;;4883631;29;20436;-75
2023/02/02 07:56:49;;;;;;;13.77;5.10;;;8.00;99.90;;;;;;4872968;29;20991;-75
2023/02/02 07:59:15;;;;;;;15.27;5.60;;;8.10;99.90;;;;;;4903792;29;20483;-73
2023/02/02 08:01:41;;;;;;;12.03;5.43;;;8.00;99.90;;;;;;4896161;29;20976;-72
2023/02/02 08:04:10;;;;;;;9.60;4.80;;;8.00;99.90;;;;;;4896546;29;20433;-74
2023/02/02 08:06:41;;;;;;;12.00;5.33;;;8.00;99.90;;;;;;4896068;29;20466;-75
2023/02/02 08:09:09;;;;;;;12.27;5.70;;;8.00;99.90;;;;;;4918218;29;20430;-75
2023/02/02 08:11:37;;;;;;;12.37;4.90;;;8.00;99.90;;;;;;4896129;29;20468;-75
2023/02/02 08:14:04;;;;;;;11.53;5.87;;;8.10;99.90;;;;;;4896168;29;20459;-75
2023/02/02 08:16:33;;;;;;;10.00;4.80;;;8.00;99.90;;;;;;4896335;29;20453;-75
2023/02/02 08:19:02;;;;;;;10.93;4.83;;;8.10;99.90;;;;;;4895993;29;20517;-75
2023/02/02 08:21:31;;;;;;;10.90;4.93;;;8.00;99.90;;;;;;4880575;29;20428;-75
2023/02/02 08:23:59;;;;;;;15.87;5.57;;;8.00;99.90;;;;;;4895765;29;20477;-75
2023/02/02 08:26:31;;;;;;;21.83;6.10;;;8.00;99.90;;;;;;4895954;29;20969;-75
2023/02/02 08:29:05;;;;;;;11.23;5.20;;;8.00;99.90;;;;;;4905241;29;20435;-75
2023/02/02 08:31:36;;;;;;;11.40;5.47;;;8.00;99.90;;;;;;4879645;29;20544;-75
2023/02/02 08:34:03;;;;;;;9.67;5.77;;;8.00;99.90;;;;;;4896008;29;20431;-75
2023/02/02 08:36:34;;;;;;;10.70;5.00;;;8.10;99.90;;;;;;4880719;29;20466;-75
2023/02/02 08:39:09;;;;;;;9.27;5.67;;;8.00;99.90;;;;;;4895648;29;20460;-75
2023/02/02 08:41:36;;;;;;;16.13;6.03;;;8.00;99.90;;;;;;4879748;29;20802;-75
2023/02/02 08:44:06;;;;;;;16.80;6.20;;;8.00;99.90;;;;;;4897002;29;20427;-75
2023/02/02 08:46:33;;;;;;;10.93;5.07;;;8.10;99.90;;;;;;4880457;29;20513;-75
2023/02/02 08:48:59;;;;;;;11.20;5.77;;;8.10;99.90;;;;;;4895619;29;21017;-75
2023/02/02 08:51:25;;;;;;;9.07;5.30;;;8.00;99.90;;;;;;4880016;29;20454;-75
2023/02/02 08:53:51;;;;;;;8.70;4.77;;;8.00;99.90;;;;;;4895675;29;20860;-75
2023/02/02 08:56:19;;;;;;;11.93;5.53;;;8.00;99.90;;;;;;4879860;29;20468;-73
2023/02/02 08:58:55;;;;;;;13.80;6.00;;;8.00;99.90;;;;;;4881095;29;20805;-74
2023/02/02 09:01:26;;;;;;;17.63;5.90;;;8.10;99.90;;;;;;4900833;29;20470;-73
2023/02/02 09:03:58;;;;;;;9.40;5.60;;;8.10;99.90;;;;;;4900717;29;20755;-73
2023/02/02 09:06:35;;;;;;;14.40;5.67;;;8.10;99.90;;;;;;4884838;29;20460;-73
2023/02/02 09:09:11;;;;;;;14.50;6.10;;;8.10;99.90;;;;;;4884563;29;20482;-73
2023/02/02 09:11:41;;;;;;;12.70;6.30;;;8.10;99.90;;;;;;4890787;29;20440;-74
2023/02/02 09:14:09;;;;;;;18.30;6.80;;;8.10;99.90;;;;;;4901533;29;20850;-73
2023/02/02 09:16:35;;;;;;;16.70;6.70;;;8.10;99.90;;;;;;4900396;29;20491;-73
2023/02/02 09:19:04;;;;;;;13.05;6.22;;;8.10;99.90;;;;;;4884218;29;20467;-73
2023/02/02 09:21:35;;;;;;;10.60;6.30;;;8.10;99.90;;;;;;4901268;29;20633;-73
2023/02/02 09:24:07;;;;;;;10.03;6.27;;;8.10;99.90;;;;;;4917054;29;20889;-73
2023/02/02 09:26:37;;;;;;;11.47;6.20;;;8.10;99.90;;;;;;4914362;29;20497;-73
2023/02/02 09:29:05;;;;;;;12.13;6.40;;;8.10;99.90;;;;;;4910129;29;20526;-74
2023/02/02 09:31:36;;;;;;;10.50;6.27;;;8.10;99.90;;;;;;4899890;29;20450;-74
2023/02/02 09:34:05;;;;;;;12.00;6.00;;;8.10;99.90;;;;;;4884364;29;20445;-73
2023/02/02 09:36:34;;;;;;;19.23;7.00;;;8.10;99.90;;;;;;4884615;29;20516;-73
2023/02/02 09:39:00;;;;;;;10.67;6.10;;;8.10;99.90;;;;;;4868390;29;20465;-73
2023/02/02 09:41:35;;;;;;;14.70;5.40;;;8.10;99.90;;;;;;4884405;29;20780;-73
2023/02/02 09:44:25;;;;;;;10.30;5.20;;;8.10;99.90;;;;;;4890215;29;20815;-73
2023/02/02 09:47:21;;;;;;;12.60;6.57;;;8.10;99.90;;;;;;4910886;29;20849;-73
2023/02/02 09:50:29;;;;;;;13.73;6.83;;;8.10;99.90;;;;;;4899810;29;20508;-73
2023/02/02 09:53:09;;;;;;;9.10;5.30;;;8.10;99.90;;;;;;4861609;29;20437;-73
2023/02/02 09:55:41;;;;;;;14.70;6.37;;;8.10;99.90;;;;;;4891730;29;20457;-73
2023/02/02 09:58:32;;;;;;;19.53;7.47;;;8.10;99.90;;;;;;4887090;29;20531;-73
2023/02/02 10:01:16;;;;;;;10.43;5.80;;;8.10;99.90;;;;;;4865818;29;20532;-73
2023/02/02 10:04:00;;;;;;;10.13;7.03;;;8.10;99.90;;;;;;4912201;29;20419;-73
2023/02/02 10:06:39;;;;;;;8.97;5.40;;;8.10;99.90;;;;;;4882584;29;20797;-73
2023/02/02 10:09:22;;;;;;;16.23;6.43;;;8.10;99.90;;;;;;4915175;29;20411;-73
2023/02/02 10:12:13;;;;;;;14.33;5.43;;;8.10;99.90;;;;;;4895300;29;20504;-73
2023/02/02 10:15:11;;;;;;;9.00;4.70;;;8.10;99.90;;;;;;4881406;29;20438;-73
2023/02/02 10:17:53;;;;;;;13.53;6.03;;;8.10;99.90;;;;;;4887271;29;20437;-73
2023/02/02 10:20:37;;;;;;;11.83;5.90;;;8.10;99.90;;;;;;4898488;29;20550;-73
2023/02/02 10:23:20;;;;;;;10.17;5.27;;;8.10;99.90;;;;;;4899216;29;20465;-73
2023/02/02 10:25:57;;;;;;;12.00;5.70;;;8.10;99.90;;;;;;4898812;29;20565;-73
2023/02/02 10:28:43;;;;;;;9.97;5.67;;;8.10;99.90;;;;;;4923397;29;20440;-74
2023/02/02 10:31:36;;;;;;;13.23;5.50;;;8.10;99.90;;;;;;4864801;29;20548;-73
2023/02/02 10:34:29;;;;;;;13.60;5.90;;;8.10;99.90;;;;;;4908117;29;21095;-73
2023/02/02 10:37:07;;;;;;;16.17;6.30;;;8.10;99.90;;;;;;4884481;29;20461;-73
2023/02/02 10:39:59;;;;;;;12.93;5.37;;;8.10;99.90;;;;;;4881163;29;20456;-73
2023/02/02 10:43:44;;;;;;;17.13;6.30;;;8.10;99.90;;;;;;4854224;29;20441;-73
2023/02/02 10:45:33;;;;;;;9.33;5.47;;;8.10;99.90;;;;;;4918701;29;20435;-73
2023/02/02 10:48:11;;;;;;;12.60;5.50;;;8.20;99.90;;;;;;4931738;29;20422;-73
2023/02/02 10:50:43;;;;;;;15.50;6.30;;;8.10;99.90;;;;;;4902101;29;20421;-73
2023/02/02 10:53:15;;;;;;;12.77;6.10;;;8.20;99.90;;;;;;4902509;29;20436;-73
2023/02/02 10:56:04;;;;;;;11.03;6.83;;;8.20;99.90;;;;;;4898223;29;20519;-73
2023/02/02 10:59:14;;;;;;;11.43;6.10;;;8.20;99.90;;;;;;4899592;29;20828;-75
2023/02/02 11:01:43;;;;;;;16.20;6.10;;;8.20;99.90;;;;;;4898068;29;20455;-75
2023/02/02 11:07:00;;;;;;;9.00;6.77;;;8.20;99.90;;;;;;4897808;29;20536;-75
2023/02/02 11:09:41;;;;;;;10.57;5.97;;;8.30;99.90;;;;;;4898417;29;20552;-75
2023/02/02 11:12:32;;;;;;;9.63;5.53;;;8.30;99.90;;;;;;4899181;29;20465;-75
2023/02/02 11:15:07;;;;;;;12.87;5.70;;;8.20;99.90;;;;;;4887919;29;20489;-76
2023/02/02 11:17:34;;;;;;;9.37;5.90;;;8.20;99.90;;;;;;4894286;29;20463;-74
2023/02/02 11:20:01;;;;;;;12.57;6.20;;;8.30;99.90;;;;;;4898303;29;20834;-73
2023/02/02 11:22:29;;;;;;;10.90;6.00;;;8.30;99.90;;;;;;4882651;29;20986;-73
2023/02/02 11:24:57;;;;;;;7.40;5.77;;;8.30;99.90;;;;;;4898875;29;20405;-73
2023/02/02 11:27:40;;;;;;;10.13;5.57;;;8.30;99.90;;;;;;4898459;29;20456;-74
2023/02/02 11:30:21;;;;;;;10.03;6.13;;;8.30;99.90;;;;;;4898335;29;20416;-74
2023/02/02 11:32:50;;;;;;;10.50;6.40;;;8.30;99.90;;;;;;4898086;29;20432;-74
2023/02/02 11:35:23;;;;;;;16.60;5.60;;;8.30;99.90;;;;;;4897970;29;20982;-74
2023/02/02 11:38:14;;;;;;;8.67;5.63;;;8.30;99.90;;;;;;4897694;29;20526;-72
2023/02/02 11:40:51;;;;;;;11.77;5.83;;;8.30;99.90;;;;;;4896999;29;20460;-73
2023/02/02 11:43:29;;;;;;;15.60;8.03;;;8.30;99.90;;;;;;4881354;29;20496;-73
2023/02/02 11:46:04;;;;;;;11.13;5.57;;;8.30;99.90;;;;;;4881273;29;20967;-73
2023/02/02 11:48:38;;;;;;;14.27;6.60;;;8.30;99.90;;;;;;4896194;29;20447;-73
2023/02/02 11:51:19;;;;;;;14.33;5.23;;;8.30;99.90;;;;;;4896939;29;20427;-73
2023/02/02 11:53:49;;;;;;;12.60;5.10;;;8.30;99.90;;;;;;4898191;29;20472;-73
2023/02/02 11:56:20;;;;;;;13.87;5.50;;;8.30;99.90;;;;;;4896330;29;20488;-73
2023/02/02 11:58:51;;;;;;;11.70;5.87;;;8.30;99.90;;;;;;4881033;29;20448;-73
2023/02/02 12:01:40;;;;;;;13.97;5.60;;;8.30;99.90;;;;;;4896380;29;20918;-73
2023/02/02 12:04:15;;;;;;;9.80;5.00;;;8.30;99.90;;;;;;4896818;29;20432;-74
2023/02/02 12:06:44;;;;;;;10.90;5.27;;;8.30;99.90;;;;;;4896318;29;20535;-73
2023/02/02 12:09:15;;;;;;;10.30;5.00;;;8.30;99.90;;;;;;4897287;29;20881;-73
2023/02/02 12:11:47;;;;;;;16.93;5.90;;;8.30;99.90;;;;;;4881053;29;20444;-73
2023/02/02 12:14:20;;;;;;;11.63;5.00;;;8.30;99.90;;;;;;4895967;29;20895;-73
2023/02/02 12:17:04;;;;;;;10.67;5.40;;;8.30;99.90;;;;;;4897360;29;20873;-74
2023/02/02 12:19:56;;;;;;;10.90;5.80;;;8.30;99.90;;;;;;4895978;29;20470;-74
2023/02/02 12:22:57;;;;;;;9.73;4.90;;;8.40;99.90;;;;;;4896044;29;20475;-73
2023/02/02 12:25:48;;;;;;;8.77;5.53;;;8.30;99.90;;;;;;4864216;29;20996;-74
2023/02/02 12:28:47;;;;;;;10.73;5.27;;;8.40;99.90;;;;;;4890855;29;20512;-73
2023/02/02 12:31:52;;;;;;;9.65;5.07;;;8.40;99.90;;;;;;4895968;29;20460;-73
2023/02/02 12:34:30;;;;;;;12.80;4.60;;;8.30;99.90;;;;;;4875515;29;20239;-73
2023/02/02 12:37:12;;;;;;;9.43;5.10;;;8.30;99.90;;;;;;4874923;29;20814;-73
2023/02/02 12:40:04;;;;;;;9.03;4.33;;;8.30;99.90;;;;;;4895995;29;20491;-73
2023/02/02 12:43:16;;;;;;;7.70;4.10;;;8.40;99.90;;;;;;4880269;29;20452;-71
2023/02/02 12:45:53;;;;;;;10.50;5.10;;;8.30;99.90;;;;;;4881123;29;20969;-75
2023/02/02 12:49:00;;;;;;;10.20;5.10;;;8.40;99.90;;;;;;4896593;29;20449;-73
2023/02/02 12:51:50;;;;;;;12.83;4.67;;;8.40;99.90;;;;;;4893511;29;20469;-72
2023/02/02 12:54:41;;;;;;;9.27;4.20;;;8.40;99.90;;;;;;4884345;29;20479;-73
2023/02/02 12:57:33;;;;;;;14.83;5.73;;;8.40;99.90;;;;;;4893995;29;20456;-73
2023/02/02 13:00:24;;;;;;;8.07;5.40;;;8.40;99.90;;;;;;4894456;29;20552;-73
2023/02/02 13:03:16;;;;;;;9.27;5.50;;;8.40;99.90;;;;;;4878475;29;20536;-73
2023/02/02 13:06:14;;;;;;;9.50;5.20;;;8.40;99.90;;;;;;4890102;29;20460;-73
2023/02/02 13:09:05;;;;;;;9.60;4.80;;;8.40;99.90;;;;;;4894366;29;20461;-73
2023/02/02 13:11:36;;;;;;;10.33;4.90;;;8.40;99.90;;;;;;4902249;29;20776;-73
2023/02/02 13:14:17;;;;;;;6.67;4.50;;;8.40;99.90;;;;;;4879070;29;20847;-73
2023/02/02 13:16:49;;;;;;;11.97;5.67;;;8.40;99.90;;;;;;4894892;29;20468;-73
2023/02/02 13:19:43;;;;;;;15.50;4.73;;;8.40;99.90;;;;;;4895513;29;20806;-73
2023/02/02 13:22:20;;;;;;;6.97;4.30;;;8.40;99.90;;;;;;4861802;29;20477;-73
2023/02/02 13:24:48;;;;;;;10.07;6.23;;;8.40;99.90;;;;;;4885958;29;20444;-73
2023/02/02 13:27:20;;;;;;;9.63;5.10;;;8.40;99.90;;;;;;4900285;29;20430;-73
2023/02/02 13:30:16;;;;;;;11.27;5.83;;;8.40;99.90;;;;;;4891821;29;20462;-73